Grandville, MI (49468)

9:03 AM EST on February 28, 2017 (GMT -0500)
Downtown | | Change Station

Elev 628 ft 42.91 °N, 85.76 °W | Updated 6 minutes ago

Overcast
Overcast
44.4 °F
Feels Like 44 °F
N
2.0
Wind Variable Wind from ESE
Gusts 4.0 mph

Today
High -- | Low -- °F
--% Chance of Precip.
Yesterday
High -- | Low -- °F
Precip. -- in
Pressure 29.91 in
Visibility 3.0 miles
Clouds Mostly Cloudy 1400 ft
Overcast 3400 ft
Windchill 44 °F
Dew Point 42 °F
Humidity 90%
Rainfall 0.20 in
Snow Depth Not available.
7:20 AM 6:31 PM
Waxing Crescent, 5% visible
METAR KGRR 281353Z 13007KT 3SM -RA BR BKN014 OVC034 07/05 A2989 RMK AO2 RAE1257B20E30B46 SLP127 P0000 T00670050
Pressure 29.91 in
Visibility 3.0 miles
Clouds Mostly Cloudy 1400 ft
Overcast 3400 ft
Windchill 44 °F
Dew Point 42 °F
Humidity 90%
Rainfall 0.20 in
Snow Depth Not available.
7:20 AM 6:31 PM
Waxing Crescent, 5% visible
METAR KGRR 281353Z 13007KT 3SM -RA BR BKN014 OVC034 07/05 A2989 RMK AO2 RAE1257B20E30B46 SLP127 P0000 T00670050

Get Your Daily Forecast Email!

Thanks for signing up!

Be on the lookout for a verification email in your inbox.

You'll start receiving the daily forecast at 8 AM.

×

10-Day Weather Forecast

Almanac

Astronomy

Feb. 28, 2017 Rise Set
Actual Time
Civil Twilight
Nautical Twilight
Astronomical Twilight
Moon
Length of Visible Light
Length of Day
Tomorrow will be .
, % of the Moon is Illuminated

Today's Extremes

State Highs State Lows

Community

WunderPhotos

Upload Photos

1,962,540 photos uploaded!

WunderBlog® & News

Nearby

Air Quality

  Air Quality AQ Index Pollutant
Not available.

Snow Depth

Station Depth Elevation

Earthquake Activity

City Distance Mag. Time & Date
Minimum magnitude displayed is 2.5.

Coastal Water Temperatures

Place Temperature

Stations

Nearby Weather Stations

Station Location Temp. Windchill Dew Point Humidity Wind Precip. Elev Updated Type
                   

Watches & Warnings

There are currently no watches in effect.